createdAt,value
2023-04-15T00:04:47.484Z,8.50
2023-04-15T00:09:50.638Z,9.00
2023-04-15T00:14:54.685Z,8.00
2023-04-15T00:20:00.013Z,8.40
2023-04-15T00:25:03.658Z,9.10
2023-04-15T00:30:07.727Z,11.10
2023-04-15T00:35:11.092Z,8.00
2023-04-15T00:40:17.567Z,8.60
2023-04-15T00:45:20.884Z,8.40
2023-04-15T00:50:24.232Z,8.10
2023-04-15T00:55:27.496Z,8.90
2023-04-15T01:00:31.463Z,8.50
2023-04-15T01:05:35.040Z,7.40
2023-04-15T01:10:39.670Z,7.90
2023-04-15T01:15:43.044Z,8.20
2023-04-15T01:20:46.927Z,8.70
2023-04-15T01:25:52.646Z,7.60
2023-04-15T01:31:15.805Z,6.80
2023-04-15T01:36:18.869Z,8.20
2023-04-15T01:41:28.994Z,8.90
2023-04-15T01:46:32.522Z,8.90
2023-04-15T01:51:35.765Z,8.30
2023-04-15T01:56:39.186Z,8.40
2023-04-15T02:01:42.413Z,8.00
2023-04-15T02:06:45.499Z,9.00
2023-04-15T02:11:48.610Z,7.90
2023-04-15T02:16:51.779Z,9.90
2023-04-15T02:21:54.819Z,7.30
2023-04-15T02:26:57.973Z,7.30
2023-04-15T02:32:01.229Z,7.70
2023-04-15T02:37:04.962Z,7.60
2023-04-15T02:42:10.490Z,8.10
2023-04-15T02:47:14.560Z,7.40
2023-04-15T02:52:17.658Z,6.70
2023-04-15T02:57:20.760Z,7.50
2023-04-15T03:02:24.783Z,7.10
2023-04-15T03:07:28.096Z,5.80
2023-04-15T03:12:31.324Z,7.40
2023-04-15T03:17:34.548Z,6.70
2023-04-15T03:22:37.833Z,8.00
2023-04-15T03:27:42.163Z,8.50
2023-04-15T03:32:45.306Z,6.70
2023-04-15T03:37:49.482Z,6.80
2023-04-15T03:42:52.375Z,6.60
2023-04-15T03:47:55.913Z,5.90
2023-04-15T03:52:59.648Z,6.90
2023-04-15T03:58:02.778Z,4.60
2023-04-15T04:03:06.036Z,5.90
2023-04-15T04:08:09.269Z,7.60
2023-04-15T04:13:12.270Z,9.50
2023-04-15T04:18:15.583Z,7.60
2023-04-15T04:23:18.699Z,6.30
2023-04-15T04:28:21.998Z,7.30
2023-04-15T04:33:25.316Z,7.40
2023-04-15T04:38:28.520Z,7.60
2023-04-15T04:43:31.623Z,6.70
2023-04-15T04:48:34.931Z,6.00
2023-04-15T04:53:38.040Z,7.60
2023-04-15T04:58:41.148Z,7.60
2023-04-15T05:03:44.515Z,7.20
2023-04-15T05:08:48.585Z,7.60
2023-04-15T05:13:51.621Z,7.90
2023-04-15T05:18:54.910Z,7.40
2023-04-15T05:23:58.010Z,7.50
2023-04-15T05:29:01.537Z,8.50
2023-04-15T05:34:05.566Z,7.70
2023-04-15T05:39:09.376Z,20.60
2023-04-15T05:44:12.591Z,9.50
2023-04-15T05:49:15.798Z,10.50
2023-04-15T05:54:20.279Z,7.70
2023-04-15T05:59:23.541Z,11.00
2023-04-15T06:04:26.814Z,9.70
2023-04-15T06:09:30.070Z,10.70
2023-04-15T06:14:33.167Z,8.80
2023-04-15T06:19:39.755Z,9.20
2023-04-15T06:24:43.070Z,8.00
2023-04-15T06:29:46.491Z,8.50
2023-04-15T06:34:49.589Z,6.90
2023-04-15T06:39:52.954Z,8.80
2023-04-15T06:44:56.417Z,7.30
2023-04-15T06:49:59.827Z,8.30
2023-04-15T06:55:03.198Z,6.40
2023-04-15T07:00:07.683Z,10.30
2023-04-15T07:05:10.807Z,7.50
2023-04-15T07:10:15.242Z,6.50
2023-04-15T07:15:18.442Z,7.50
2023-04-15T07:20:21.636Z,8.50
2023-04-15T07:25:24.947Z,7.50
2023-04-15T07:30:28.062Z,7.00
2023-04-15T07:35:31.783Z,8.00
2023-04-15T07:40:34.892Z,8.90
2023-04-15T07:45:38.197Z,8.90
2023-04-15T07:50:41.299Z,7.60
2023-04-15T07:55:44.410Z,8.10
2023-04-15T08:00:47.614Z,7.80
2023-04-15T08:05:50.724Z,7.40
2023-04-15T08:10:53.937Z,5.90
2023-04-15T08:16:25.403Z,6.80
2023-04-15T08:21:31.168Z,8.20
2023-04-15T08:26:34.274Z,8.90
2023-04-15T08:31:37.577Z,8.60
2023-04-15T08:36:41.826Z,7.70
2023-04-15T08:42:03.916Z,8.20
2023-04-15T08:47:09.467Z,8.90
2023-04-15T08:52:13.168Z,6.50
2023-04-15T08:57:17.243Z,7.00
2023-04-15T09:02:21.135Z,7.00
2023-04-15T09:07:24.320Z,7.10
2023-04-15T09:12:27.602Z,7.10
2023-04-15T09:17:34.155Z,6.50
2023-04-15T09:22:38.267Z,8.20
2023-04-15T09:27:52.816Z,7.80
2023-04-15T09:33:02.543Z,5.90
2023-04-15T09:38:10.500Z,7.40
2023-04-15T09:43:13.957Z,7.00
2023-04-15T09:48:22.436Z,8.00
2023-04-15T09:53:26.996Z,6.60
2023-04-15T09:58:33.685Z,6.70
2023-04-15T10:03:37.820Z,6.70
2023-04-15T10:08:43.131Z,6.00
2023-04-15T10:13:49.108Z,6.70
2023-04-15T10:18:57.690Z,8.20
2023-04-15T10:24:03.879Z,9.00
2023-04-15T10:29:08.525Z,7.30
2023-04-15T10:34:12.773Z,8.90
2023-04-15T10:39:34.654Z,9.90
2023-04-15T10:44:58.978Z,6.90
2023-04-15T10:50:02.700Z,6.60
2023-04-15T10:55:22.048Z,6.50
2023-04-15T11:00:28.992Z,6.60
2023-04-15T11:05:52.692Z,8.40
2023-04-15T11:10:56.120Z,16.40
2023-04-15T11:16:01.788Z,7.20
2023-04-15T11:21:08.326Z,7.80
2023-04-15T11:26:14.416Z,8.80
2023-04-15T11:31:20.272Z,9.50
2023-04-15T11:36:29.353Z,7.90
2023-04-15T11:41:32.547Z,8.90
2023-04-15T11:46:36.271Z,9.10
2023-04-15T11:51:39.388Z,11.90
2023-04-15T11:56:42.492Z,6.10
2023-04-15T12:01:47.773Z,8.30
2023-04-15T12:06:51.045Z,7.70
2023-04-15T12:11:58.691Z,6.80
2023-04-15T12:17:05.487Z,5.10
2023-04-15T12:22:15.340Z,6.80
2023-04-15T12:27:18.535Z,5.20
2023-04-15T12:32:23.911Z,6.00
2023-04-15T12:37:27.007Z,6.30
2023-04-15T12:42:30.098Z,6.00
2023-04-15T12:47:33.436Z,5.60
2023-04-15T12:52:36.624Z,4.60
2023-04-15T12:57:40.143Z,10.50
2023-04-15T13:02:44.867Z,6.20
2023-04-15T13:07:48.198Z,5.90
2023-04-15T13:12:53.808Z,5.30
2023-04-15T13:17:57.105Z,4.40
2023-04-15T13:23:00.295Z,4.90
2023-04-15T13:28:03.585Z,6.50
2023-04-15T13:33:06.842Z,4.50
2023-04-15T13:38:10.027Z,8.90
2023-04-15T13:43:13.210Z,21.50
2023-04-15T13:48:16.579Z,22.20
2023-04-15T13:53:19.854Z,49.30
2023-04-15T13:58:22.942Z,41.50
2023-04-15T14:03:26.418Z,13.10
2023-04-15T14:08:31.317Z,9.20
2023-04-15T14:13:34.533Z,11.60
2023-04-15T14:18:37.919Z,10.30
2023-04-15T14:23:41.336Z,11.30
2023-04-15T14:28:45.471Z,13.10
2023-04-15T14:33:48.568Z,6.40
2023-04-15T14:38:51.723Z,7.10
2023-04-15T14:43:54.880Z,8.30
2023-04-15T14:48:58.227Z,5.60
2023-04-15T14:54:01.535Z,19.90
2023-04-15T14:59:05.052Z,9.50
2023-04-15T15:04:11.173Z,11.60
2023-04-15T15:09:14.328Z,11.60
2023-04-15T15:14:17.518Z,7.70
2023-04-15T15:19:21.039Z,8.90
2023-04-15T15:24:24.141Z,11.40
2023-04-15T15:29:27.355Z,8.10
2023-04-15T15:34:30.558Z,5.10
2023-04-15T15:39:36.097Z,5.10
2023-04-15T15:44:39.143Z,7.00
2023-04-15T15:49:42.338Z,3.90
2023-04-15T15:54:45.762Z,5.10
2023-04-15T15:59:49.232Z,7.70
2023-04-15T16:04:53.321Z,11.20
2023-04-15T16:09:56.435Z,9.30
2023-04-15T16:14:59.505Z,9.50
2023-04-15T16:20:05.696Z,6.10
2023-04-15T16:25:09.894Z,5.00
2023-04-15T16:30:14.275Z,7.00
2023-04-15T16:35:17.767Z,5.60
2023-04-15T16:40:20.787Z,4.20
2023-04-15T16:45:24.097Z,6.20
2023-04-15T16:50:27.392Z,12.00
2023-04-15T16:55:30.705Z,10.00
2023-04-15T17:00:37.015Z,5.80
2023-04-15T17:05:40.306Z,9.10
2023-04-15T17:10:43.511Z,8.60
2023-04-15T17:15:46.793Z,9.10
2023-04-15T17:20:50.069Z,8.90
2023-04-15T17:25:54.261Z,5.00
2023-04-15T17:30:57.488Z,5.30
2023-04-15T17:36:00.772Z,6.00
2023-04-15T17:41:05.121Z,5.90
2023-04-15T17:46:08.447Z,6.10
2023-04-15T17:51:13.170Z,6.60
2023-04-15T17:56:16.387Z,8.30
2023-04-15T18:01:19.509Z,5.90
2023-04-15T18:06:22.789Z,3.80
2023-04-15T18:11:26.409Z,4.50
2023-04-15T18:16:29.771Z,3.60
2023-04-15T18:21:33.062Z,3.70
2023-04-15T18:26:36.442Z,3.40
2023-04-15T18:31:39.686Z,4.40
2023-04-15T18:36:43.071Z,4.40
2023-04-15T18:41:46.308Z,7.30
2023-04-15T18:46:50.217Z,4.40
2023-04-15T18:51:53.618Z,5.20
2023-04-15T18:56:57.040Z,4.20
2023-04-15T19:02:01.553Z,3.60
2023-04-15T19:07:05.197Z,3.60
2023-04-15T19:12:08.933Z,3.30
2023-04-15T19:17:12.099Z,5.30
2023-04-15T19:22:16.732Z,5.00
2023-04-15T19:27:19.978Z,4.10
2023-04-15T19:32:23.395Z,3.50
2023-04-15T19:37:26.634Z,3.10
2023-04-15T19:42:29.804Z,3.00
2023-04-15T19:47:34.451Z,3.00
2023-04-15T19:52:38.165Z,4.50
2023-04-15T19:57:41.401Z,3.80
2023-04-15T20:02:44.709Z,4.50
2023-04-15T20:07:52.010Z,3.90
2023-04-15T20:12:55.203Z,4.30
2023-04-15T20:17:58.346Z,3.60
2023-04-15T20:23:01.529Z,3.10
2023-04-15T20:28:04.735Z,3.80
2023-04-15T20:33:08.292Z,4.00
2023-04-15T20:38:11.465Z,4.30
2023-04-15T20:43:14.857Z,3.40
2023-04-15T20:48:19.424Z,3.90
2023-04-15T20:53:22.902Z,6.60
2023-04-15T20:58:27.256Z,6.90
2023-04-15T21:03:30.567Z,6.30
2023-04-15T21:08:33.876Z,5.50
2023-04-15T21:13:37.120Z,4.00
2023-04-15T21:18:40.499Z,6.30
2023-04-15T21:23:43.614Z,6.30
2023-04-15T21:28:46.713Z,6.00
2023-04-15T21:33:50.022Z,6.80
2023-04-15T21:38:53.166Z,5.20
2023-04-15T21:43:56.335Z,5.80
2023-04-15T21:48:59.559Z,4.80
2023-04-15T21:54:02.880Z,5.30
2023-04-15T21:59:06.896Z,4.50
2023-04-15T22:04:11.334Z,7.30
2023-04-15T22:09:14.733Z,5.90
2023-04-15T22:14:18.158Z,6.00
2023-04-15T22:19:21.287Z,5.70
2023-04-15T22:24:33.215Z,6.10
2023-04-15T22:29:43.145Z,5.10
2023-04-15T22:34:46.660Z,4.60
2023-04-15T22:39:49.983Z,6.10
2023-04-15T22:44:53.082Z,5.20
2023-04-15T22:49:56.204Z,5.90
2023-04-15T22:54:59.893Z,4.70
2023-04-15T23:00:03.953Z,4.10
2023-04-15T23:05:12.588Z,3.80
2023-04-15T23:10:16.805Z,3.40
2023-04-15T23:15:20.208Z,3.00
2023-04-15T23:20:23.431Z,3.90
2023-04-15T23:25:27.439Z,3.50
2023-04-15T23:30:31.295Z,3.90
2023-04-15T23:35:34.365Z,4.20
2023-04-15T23:40:37.483Z,2.90
2023-04-15T23:45:40.687Z,3.90
2023-04-15T23:50:43.887Z,3.00
2023-04-15T23:55:47.005Z,3.20
